Assaouas, Niger
Current Conditions -  °F | °C
As of 2:30 PM on Tuesday 21 Oct 2014 (Local Time) from KQAZ Reporting Station
Clear Clear  
Wind Chill: 97°   Ceiling: Unl
Heat Index: 97°   Visibility: 6mi
Dew Point: 34°   Wind: 9mph
Humidity: 11%   Direction: 130°SE
Pressure: 29.89"   Gusts: NA
Location:  16.87°N, 7.45°E
Report Text: KQAZ 211330Z AUTO 13008KT 9999 CLR 36/01 A2989 RMK CDP03565 CLR
Loading
Personal Weather Stations






























Interactive Weather Map
Tropical Storm Tracking
New forecast layout! Learn more

10-Day Weather Forecast

Advertisements
Track Severe Weather on mobile